Terminal Aerodrome Forecast
Issued by NWS Brownsville, TX

Home | Current Version | Previous Version | Text Only | Print | Product List | Glossary On
Versions: 1 2 3 4 5 6 7 8 9 10 11 12 13 14 15 16 17 18 19
000
FTUS44 KBRO 180000 AAA
TAFHRL
TAF AMD
KHRL 180022Z 1800/1824 06010KT P6SM BKN008
     FM180500 08007KT P6SM OVC004
     FM181500 07011KT P6SM BKN025=

USA.gov is the U.S. government's official web portal to all federal, state and local government web resources and services.